createdAt,value
2022-09-05T00:02:52.379Z,101315.38
2022-09-05T00:08:01.422Z,101324.56
2022-09-05T00:13:07.467Z,101321.72
2022-09-05T00:22:59.121Z,101320.34
2022-09-05T00:24:37.403Z,101310.00
2022-09-05T00:31:05.530Z,101317.00
2022-09-05T00:35:21.648Z,101312.19
2022-09-05T00:40:41.347Z,101315.25
2022-09-05T00:45:50.867Z,101312.50
2022-09-05T00:51:11.255Z,101319.66
2022-09-05T00:56:22.160Z,101319.19
2022-09-05T01:01:36.078Z,101311.56
2022-09-05T01:06:52.925Z,101310.72
2022-09-05T01:12:06.269Z,101309.28
2022-09-05T01:17:27.041Z,101314.66
2022-09-05T01:22:50.599Z,101314.22
2022-09-05T01:29:15.524Z,101313.38
2022-09-05T01:33:47.202Z,101319.84
2022-09-05T01:40:10.460Z,101324.19
2022-09-05T01:45:08.275Z,101323.94
2022-09-05T01:50:24.165Z,101320.34
2022-09-05T01:55:31.162Z,101312.00
2022-09-05T02:00:38.822Z,101315.66
2022-09-05T02:06:31.845Z,101314.31
2022-09-05T02:11:56.080Z,101315.38
2022-09-05T02:17:50.598Z,101310.59
2022-09-05T02:23:27.364Z,101310.59
2022-09-05T02:28:50.226Z,101302.44
2022-09-05T02:34:07.301Z,101309.59
2022-09-05T02:45:02.023Z,101313.00
2022-09-05T02:45:12.357Z,101320.13
2022-09-05T02:54:07.895Z,101319.28
2022-09-05T02:57:42.878Z,101328.84
2022-09-05T03:01:44.707Z,101324.94
2022-09-05T03:07:07.636Z,101320.72
2022-09-05T03:12:31.089Z,101323.28
2022-09-05T03:17:38.401Z,101316.19
2022-09-05T03:23:01.736Z,101324.78
2022-09-05T03:28:27.742Z,101323.91
2022-09-05T03:34:00.100Z,101324.38
2022-09-05T03:39:15.125Z,101327.03
2022-09-05T03:44:38.452Z,101323.72
2022-09-05T03:54:59.761Z,101331.94
2022-09-05T03:57:14.835Z,101330.75
2022-09-05T04:02:59.987Z,101322.38
2022-09-05T04:08:18.373Z,101324.59
2022-09-05T04:12:32.503Z,101329.59
2022-09-05T04:17:42.560Z,101322.56
2022-09-05T04:23:06.105Z,101336.25
2022-09-05T04:28:13.371Z,101325.28
2022-09-05T04:33:37.010Z,101329.38
2022-09-05T04:38:41.977Z,101332.84
2022-09-05T04:43:55.321Z,101335.66
2022-09-05T04:49:02.077Z,101338.09
2022-09-05T04:54:13.080Z,101341.28
2022-09-05T05:05:52.184Z,101350.28
2022-09-05T05:06:16.462Z,101360.06
2022-09-05T05:12:19.799Z,101354.53
2022-09-05T05:18:14.226Z,101362.88
2022-09-05T05:21:36.060Z,101361.69
2022-09-05T05:26:47.692Z,101363.84
2022-09-05T05:31:56.419Z,101364.09
2022-09-05T05:37:10.829Z,101375.78
2022-09-05T05:42:20.301Z,101374.59
2022-09-05T05:47:31.816Z,101380.97
2022-09-05T05:53:11.798Z,101379.19
2022-09-05T05:58:58.751Z,101386.97
2022-09-05T06:04:18.516Z,101392.84
2022-09-05T06:14:49.817Z,101401.78
2022-09-05T06:15:28.664Z,101402.69
2022-09-05T06:22:11.350Z,101401.94
2022-09-05T06:26:57.947Z,101396.94
2022-09-05T06:32:26.238Z,101388.41
2022-09-05T06:37:49.013Z,101391.03
2022-09-05T06:43:31.465Z,101390.25
2022-09-05T06:49:29.736Z,101396.19
2022-09-05T06:54:26.152Z,101402.66
2022-09-05T07:00:01.540Z,101398.50
2022-09-05T07:05:39.469Z,101394.31
2022-09-05T07:10:56.079Z,101398.44
2022-09-05T07:16:38.070Z,101403.84
2022-09-05T07:21:54.785Z,101411.75
2022-09-05T07:27:00.167Z,101408.78
2022-09-05T07:32:02.826Z,101406.34
2022-09-05T07:37:16.427Z,101416.28
2022-09-05T07:42:32.045Z,101409.19
2022-09-05T07:47:38.182Z,101410.63
2022-09-05T07:56:51.595Z,101417.66
2022-09-05T07:58:07.809Z,101427.25
2022-09-05T08:03:14.840Z,101421.66
2022-09-05T08:08:22.850Z,101420.63
2022-09-05T08:14:43.752Z,101420.97
2022-09-05T08:20:07.917Z,101409.38
2022-09-05T08:25:18.243Z,101413.69
2022-09-05T08:30:26.475Z,101404.38
2022-09-05T08:35:53.282Z,101414.94
2022-09-05T08:41:09.195Z,101401.22
2022-09-05T08:46:47.329Z,101406.31
2022-09-05T08:51:55.808Z,101393.19
2022-09-05T08:57:00.765Z,101389.66
2022-09-05T09:02:45.307Z,101381.75
2022-09-05T09:07:50.550Z,101386.50
2022-09-05T09:13:08.835Z,101378.78
2022-09-05T09:18:20.775Z,101366.53
2022-09-05T09:23:37.785Z,101373.38
2022-09-05T09:28:47.636Z,101371.31
2022-09-05T09:33:55.280Z,101358.91
2022-09-05T09:39:38.574Z,101353.13
2022-09-05T09:44:35.084Z,101352.66
2022-09-05T09:50:19.111Z,101357.19
2022-09-05T09:55:44.219Z,101352.81
2022-09-05T10:01:21.568Z,101351.31
2022-09-05T10:10:43.851Z,101352.22
2022-09-05T10:12:15.338Z,101343.75
2022-09-05T10:17:32.644Z,101341.75
2022-09-05T10:22:43.133Z,101333.00
2022-09-05T10:28:07.180Z,101338.53
2022-09-05T10:35:14.235Z,101328.84
2022-09-05T10:39:04.301Z,101321.44
2022-09-05T10:44:07.346Z,101329.75
2022-09-05T10:49:13.517Z,101321.19
2022-09-05T10:54:21.026Z,101307.81
2022-09-05T11:02:23.721Z,101305.41
2022-09-05T11:05:25.525Z,101296.25
2022-09-05T11:10:41.042Z,101291.06
2022-09-05T11:16:04.323Z,101286.00
2022-09-05T11:21:15.967Z,101281.03
2022-09-05T11:26:47.694Z,101275.88
2022-09-05T11:36:04.001Z,101264.34
2022-09-05T11:39:55.851Z,101269.53
2022-09-05T11:43:20.426Z,101258.50
2022-09-05T11:48:44.563Z,101262.25
2022-09-05T11:54:04.179Z,101260.97
2022-09-05T11:59:38.104Z,101266.44
2022-09-05T12:05:50.491Z,101266.88
2022-09-05T12:10:47.891Z,101256.69
2022-09-05T12:16:07.510Z,101252.81
2022-09-05T12:21:31.697Z,101249.50
2022-09-05T12:27:39.246Z,101248.88
2022-09-05T12:33:47.968Z,101242.84
2022-09-05T12:40:38.519Z,101235.75
2022-09-05T12:43:53.000Z,101228.34
2022-09-05T12:49:11.016Z,101231.63
2022-09-05T12:54:33.359Z,101238.28
2022-09-05T13:02:55.313Z,101237.69
2022-09-05T13:05:10.444Z,101219.78
2022-09-05T13:11:02.418Z,101209.63
2022-09-05T13:15:39.017Z,101215.06
2022-09-05T13:20:47.869Z,101201.47
2022-09-05T13:26:44.224Z,101185.88
2022-09-05T13:38:03.551Z,101183.94
2022-09-05T13:38:04.488Z,101173.84
2022-09-05T13:42:45.143Z,101163.88
2022-09-05T13:49:23.814Z,101157.66
2022-09-05T13:54:22.474Z,101155.81
2022-09-05T13:59:24.788Z,101159.41
2022-09-05T14:10:22.949Z,101152.44
2022-09-05T14:15:36.669Z,101145.03
2022-09-05T14:20:49.548Z,101147.66
2022-09-05T14:26:00.182Z,101138.72
2022-09-05T14:35:10.888Z,101123.94
2022-09-05T14:38:01.386Z,101122.22
2022-09-05T14:42:31.139Z,101118.97
2022-09-05T14:48:02.554Z,101108.94
2022-09-05T15:02:44.503Z,101105.44
2022-09-05T15:11:25.642Z,101096.91
2022-09-05T15:14:38.372Z,101091.09
2022-09-05T15:20:05.607Z,101084.31
2022-09-05T15:25:17.155Z,101087.72
2022-09-05T15:30:35.150Z,101086.28
2022-09-05T15:35:42.084Z,101077.63
2022-09-05T15:40:43.851Z,101075.41
2022-09-05T15:45:45.458Z,101080.50
2022-09-05T15:50:49.944Z,101072.81
2022-09-05T15:56:00.050Z,101069.03
2022-09-05T16:01:13.510Z,101061.66
2022-09-05T16:10:36.897Z,101063.69
2022-09-05T16:12:13.992Z,101061.75
2022-09-05T16:23:17.687Z,101054.38
2022-09-05T16:23:31.786Z,101045.63
2022-09-05T16:28:29.804Z,101048.88
2022-09-05T16:33:33.675Z,101037.53
2022-09-05T16:38:49.109Z,101039.06
2022-09-05T16:43:57.227Z,101036.81
2022-09-05T16:49:13.363Z,101039.38
2022-09-05T16:54:25.420Z,101026.72
2022-09-05T16:59:31.119Z,101022.25
2022-09-05T17:05:04.128Z,101011.88
2022-09-05T17:10:10.658Z,101003.72
2022-09-05T17:15:20.585Z,101011.22
2022-09-05T17:20:25.434Z,101000.34
2022-09-05T17:29:25.247Z,100993.03
2022-09-05T17:36:41.232Z,100995.78
2022-09-05T17:42:35.007Z,100985.91
2022-09-05T17:47:48.328Z,100987.91
2022-09-05T17:53:25.748Z,100995.09
2022-09-05T17:58:49.614Z,101000.91
2022-09-05T18:03:51.985Z,101005.59
2022-09-05T18:08:53.813Z,101003.19
2022-09-05T18:14:00.426Z,101006.59
2022-09-05T18:19:32.721Z,101007.69
2022-09-05T18:24:47.952Z,101009.28
2022-09-05T18:29:59.396Z,101006.00
2022-09-05T18:35:10.532Z,101008.06
2022-09-05T18:40:36.527Z,101009.81
2022-09-05T18:45:52.987Z,101009.38
2022-09-05T18:51:13.357Z,101007.31
2022-09-05T18:56:27.620Z,100992.97
2022-09-05T19:01:39.469Z,100995.16
2022-09-05T19:06:46.789Z,100998.16
2022-09-05T19:11:56.314Z,100994.50
2022-09-05T19:17:27.393Z,100991.78
2022-09-05T19:23:10.010Z,100993.16
2022-09-05T19:32:47.145Z,100992.75
2022-09-05T19:36:50.207Z,100996.59
2022-09-05T19:40:06.394Z,100999.88
2022-09-05T19:47:42.804Z,100996.97
2022-09-05T19:50:01.408Z,101003.38
2022-09-05T19:55:10.966Z,100988.13
2022-09-05T20:00:20.557Z,100992.16
2022-09-05T20:05:23.768Z,100984.41
2022-09-05T20:10:32.294Z,100972.34
2022-09-05T20:15:36.329Z,100970.69
2022-09-05T20:20:38.366Z,100976.59
2022-09-05T20:25:47.833Z,100967.75
2022-09-05T20:30:55.769Z,100984.06
2022-09-05T20:43:08.394Z,100974.38
2022-09-05T20:43:15.053Z,100979.91
2022-09-05T20:52:23.113Z,100983.47
2022-09-05T20:54:24.999Z,100980.84
2022-09-05T20:57:45.074Z,100979.53
2022-09-05T21:02:55.011Z,100975.50
2022-09-05T21:08:15.697Z,100972.19
2022-09-05T21:13:24.983Z,100976.06
2022-09-05T21:18:33.330Z,100974.34
2022-09-05T21:23:37.888Z,100972.69
2022-09-05T21:28:44.300Z,100965.75
2022-09-05T21:33:47.952Z,100967.13
2022-09-05T21:38:59.152Z,100962.84
2022-09-05T21:47:50.090Z,100959.00
2022-09-05T21:49:23.015Z,100944.47
2022-09-05T21:59:14.753Z,100947.38
2022-09-05T21:59:47.842Z,100944.63
2022-09-05T22:04:49.862Z,100937.47
2022-09-05T22:09:51.463Z,100928.19
2022-09-05T22:14:53.043Z,100929.53
2022-09-05T22:19:54.964Z,100933.72
2022-09-05T22:25:02.362Z,100928.34
2022-09-05T22:30:04.902Z,100915.56
2022-09-05T22:35:26.921Z,100919.06
2022-09-05T22:40:30.729Z,100919.44
2022-09-05T22:45:34.221Z,100918.06
2022-09-05T22:50:37.059Z,100918.06
2022-09-05T22:55:41.623Z,100925.34
2022-09-05T23:00:43.258Z,100923.94
2022-09-05T23:05:45.075Z,100933.56
2022-09-05T23:10:46.676Z,100944.56
2022-09-05T23:15:48.418Z,100935.41
2022-09-05T23:20:50.012Z,100939.31
2022-09-05T23:25:51.546Z,100932.63
2022-09-05T23:30:53.197Z,100929.38
2022-09-05T23:36:00.785Z,100939.06
2022-09-05T23:41:08.659Z,100929.63
2022-09-05T23:46:10.345Z,100939.28
2022-09-05T23:51:13.380Z,100934.47
2022-09-05T23:56:14.947Z,100927.56
